createdAt,value
2023-03-14T00:00:12.494Z,98874.00
2023-03-14T00:02:39.308Z,98875.41
2023-03-14T00:05:07.509Z,98883.13
2023-03-14T00:07:36.241Z,98881.94
2023-03-14T00:10:12.090Z,98887.97
2023-03-14T00:12:39.012Z,98884.31
2023-03-14T00:15:07.867Z,98888.19
2023-03-14T00:17:35.544Z,98879.00
2023-03-14T00:20:09.454Z,98871.06
2023-03-14T00:22:37.045Z,98878.06
2023-03-14T00:25:05.270Z,98865.06
2023-03-14T00:27:32.144Z,98873.28
2023-03-14T00:29:58.696Z,98866.75
2023-03-14T00:32:25.419Z,98878.09
2023-03-14T00:34:52.012Z,98861.97
2023-03-14T00:37:19.650Z,98872.81
2023-03-14T00:39:46.181Z,98866.56
2023-03-14T00:42:12.657Z,98878.63
2023-03-14T00:44:39.216Z,98881.03
2023-03-14T00:47:07.600Z,98884.88
2023-03-14T00:49:34.364Z,98873.53
2023-03-14T00:52:00.839Z,98878.13
2023-03-14T00:54:27.355Z,98886.59
2023-03-14T00:56:53.866Z,98870.66
2023-03-14T00:59:20.349Z,98884.16
2023-03-14T01:01:47.048Z,98882.00
2023-03-14T01:04:13.889Z,98896.00
2023-03-14T01:06:40.760Z,98900.59
2023-03-14T01:09:07.275Z,98890.44
2023-03-14T01:11:35.945Z,98902.97
2023-03-14T01:14:03.247Z,98900.06
2023-03-14T01:16:32.352Z,98900.28
2023-03-14T01:19:01.283Z,98905.56
2023-03-14T01:21:37.385Z,98914.22
2023-03-14T01:24:06.387Z,98915.16
2023-03-14T01:26:35.122Z,98919.69
2023-03-14T01:29:01.722Z,98925.66
2023-03-14T01:31:29.392Z,98920.31
2023-03-14T01:33:56.399Z,98911.13
2023-03-14T01:36:22.962Z,98911.56
2023-03-14T01:38:49.779Z,98904.06
2023-03-14T01:41:24.644Z,98905.25
2023-03-14T01:43:53.559Z,98910.78
2023-03-14T01:46:35.144Z,98905.22
2023-03-14T01:49:20.798Z,98906.41
2023-03-14T01:52:00.174Z,98888.06
2023-03-14T01:54:36.939Z,98892.63
2023-03-14T01:57:44.004Z,98878.66
2023-03-14T02:00:15.191Z,98877.66
2023-03-14T02:02:46.616Z,98881.50
2023-03-14T02:05:19.814Z,98869.44
2023-03-14T02:07:59.786Z,98882.69
2023-03-14T02:10:39.582Z,98875.47
2023-03-14T02:13:07.225Z,98878.59
2023-03-14T02:15:48.717Z,98875.47
2023-03-14T02:18:32.964Z,98864.88
2023-03-14T02:21:44.803Z,98862.69
2023-03-14T02:24:40.676Z,98864.13
2023-03-14T02:27:13.956Z,98851.34
2023-03-14T02:29:47.782Z,98856.66
2023-03-14T02:32:15.791Z,98861.97
2023-03-14T02:34:44.690Z,98861.97
2023-03-14T02:37:13.330Z,98855.19
2023-03-14T02:39:43.672Z,98863.88
2023-03-14T02:42:10.365Z,98853.75
2023-03-14T02:44:36.796Z,98862.41
2023-03-14T02:47:05.323Z,98854.00
2023-03-14T02:49:34.545Z,98853.28
2023-03-14T02:52:01.084Z,98847.25
2023-03-14T02:54:27.637Z,98838.56
2023-03-14T02:56:54.248Z,98825.28
2023-03-14T02:59:20.798Z,98836.63
2023-03-14T03:01:55.115Z,98826.50
2023-03-14T03:04:21.535Z,98831.81
2023-03-14T03:06:49.946Z,98834.44
2023-03-14T03:09:16.775Z,98836.38
2023-03-14T03:11:43.294Z,98824.56
2023-03-14T03:14:15.324Z,98830.34
2023-03-14T03:16:41.986Z,98831.53
2023-03-14T03:19:08.474Z,98831.53
2023-03-14T03:21:35.863Z,98828.63
2023-03-14T03:24:02.391Z,98820.94
2023-03-14T03:26:28.857Z,98820.47
2023-03-14T03:28:55.392Z,98819.75
2023-03-14T03:31:23.401Z,98820.47
2023-03-14T03:33:49.934Z,98818.53
2023-03-14T03:36:16.423Z,98813.25
2023-03-14T03:38:42.961Z,98815.16
2023-03-14T03:41:09.866Z,98815.41
2023-03-14T03:43:36.554Z,98809.66
2023-03-14T03:46:06.152Z,98800.97
2023-03-14T03:48:33.378Z,98792.28
2023-03-14T03:51:02.799Z,98802.16
2023-03-14T03:53:33.593Z,98804.09
2023-03-14T03:56:03.686Z,98801.44
2023-03-14T03:58:30.282Z,98797.59
2023-03-14T04:00:56.788Z,98805.06
2023-03-14T04:03:24.245Z,98794.25
2023-03-14T04:06:19.250Z,98802.94
2023-03-14T04:08:47.911Z,98811.63
2023-03-14T04:11:35.698Z,98801.25
2023-03-14T04:14:31.343Z,98808.03
2023-03-14T04:17:18.044Z,98804.44
2023-03-14T04:19:44.737Z,98808.06
2023-03-14T04:22:11.548Z,98808.31
2023-03-14T04:24:46.656Z,98807.13
2023-03-14T04:27:15.527Z,98807.84
2023-03-14T04:29:43.820Z,98816.06
2023-03-14T04:32:12.083Z,98811.47
2023-03-14T04:34:39.686Z,98809.81
2023-03-14T04:37:06.950Z,98812.00
2023-03-14T04:39:39.345Z,98797.53
2023-03-14T04:42:12.881Z,98796.34
2023-03-14T04:44:39.409Z,98793.47
2023-03-14T04:47:06.756Z,98795.38
2023-03-14T04:49:34.337Z,98793.47
2023-03-14T04:52:01.311Z,98784.28
2023-03-14T04:54:30.276Z,98792.97
2023-03-14T04:56:59.859Z,98790.81
2023-03-14T04:59:30.327Z,98783.56
2023-03-14T05:02:04.108Z,98794.88
2023-03-14T05:04:45.751Z,98784.53
2023-03-14T05:07:24.723Z,98786.47
2023-03-14T05:10:15.537Z,98787.66
2023-03-14T05:12:54.432Z,98792.75
2023-03-14T05:15:47.022Z,98792.94
2023-03-14T05:18:23.106Z,98787.63
2023-03-14T05:20:58.723Z,98782.53
2023-03-14T05:23:45.457Z,98768.75
2023-03-14T05:26:32.515Z,98773.28
2023-03-14T05:29:17.618Z,98767.00
2023-03-14T05:31:58.261Z,98772.53
2023-03-14T05:35:00.382Z,98767.69
2023-03-14T05:37:47.098Z,98772.72
2023-03-14T05:40:23.458Z,98771.03
2023-03-14T05:43:09.063Z,98769.56
2023-03-14T05:46:01.580Z,98771.97
2023-03-14T05:48:42.535Z,98765.72
2023-03-14T05:51:24.017Z,98769.28
2023-03-14T05:53:50.989Z,98776.53
2023-03-14T05:56:33.733Z,98775.78
2023-03-14T05:59:09.986Z,98774.34
2023-03-14T06:01:45.671Z,98770.94
2023-03-14T06:04:18.961Z,98768.75
2023-03-14T06:06:50.298Z,98766.56
2023-03-14T06:09:17.431Z,98760.06
2023-03-14T06:11:43.886Z,98753.78
2023-03-14T06:14:11.298Z,98761.28
2023-03-14T06:16:41.467Z,98769.94
2023-03-14T06:19:07.988Z,98775.97
2023-03-14T06:21:34.694Z,98771.41
2023-03-14T06:24:01.179Z,98775.78
2023-03-14T06:26:29.924Z,98779.16
2023-03-14T06:28:56.554Z,98776.53
2023-03-14T06:31:23.184Z,98775.06
2023-03-14T06:33:55.610Z,98790.50
2023-03-14T06:36:25.078Z,98804.97
2023-03-14T06:38:51.739Z,98825.44
2023-03-14T06:41:18.879Z,98839.59
2023-03-14T06:43:47.729Z,98846.56
2023-03-14T06:46:16.482Z,98867.97
2023-03-14T06:48:43.803Z,98882.56
2023-03-14T06:51:11.502Z,98892.38
2023-03-14T06:53:38.386Z,98901.97
2023-03-14T06:56:06.286Z,98904.53
2023-03-14T06:58:34.138Z,98916.25
2023-03-14T07:01:02.864Z,98923.88
2023-03-14T07:03:35.798Z,98932.00
2023-03-14T07:06:03.677Z,98935.13
2023-03-14T07:08:30.101Z,98935.84
2023-03-14T07:10:57.742Z,98938.97
2023-03-14T07:13:24.935Z,98947.56
2023-03-14T07:15:57.819Z,98960.28
2023-03-14T07:18:24.432Z,98972.06
2023-03-14T07:20:51.654Z,98977.53
2023-03-14T07:23:19.285Z,98986.44
2023-03-14T07:25:52.702Z,98995.28
2023-03-14T07:28:20.691Z,99012.28
2023-03-14T07:30:49.071Z,99011.75
2023-03-14T07:33:21.120Z,99032.84
2023-03-14T07:35:49.724Z,99040.69
2023-03-14T07:38:17.298Z,99044.97
2023-03-14T07:41:07.305Z,99059.56
2023-03-14T07:43:37.088Z,99070.16
2023-03-14T07:46:03.635Z,99085.75
2023-03-14T07:48:30.211Z,99085.97
2023-03-14T07:50:56.749Z,99100.63
2023-03-14T07:53:25.048Z,99106.88
2023-03-14T07:55:54.934Z,99116.28
2023-03-14T07:58:25.359Z,99132.16
2023-03-14T08:00:52.791Z,99134.50
2023-03-14T08:03:19.848Z,99169.38
2023-03-14T08:05:51.249Z,99189.38
2023-03-14T08:08:18.972Z,99202.31
2023-03-14T08:10:45.545Z,99226.19
2023-03-14T08:13:12.236Z,99237.88
2023-03-14T08:15:39.030Z,99246.25
2023-03-14T08:18:06.271Z,99254.94
2023-03-14T08:20:32.782Z,99258.78
2023-03-14T08:23:01.172Z,99278.31
2023-03-14T08:25:28.908Z,99280.09
2023-03-14T08:27:55.550Z,99296.81
2023-03-14T08:30:23.140Z,99300.47
2023-03-14T08:32:49.767Z,99314.53
2023-03-14T08:35:17.071Z,99325.28
2023-03-14T08:37:43.499Z,99348.88
2023-03-14T08:40:11.253Z,99341.22
2023-03-14T08:42:39.508Z,99353.41
2023-03-14T08:45:07.381Z,99378.09
2023-03-14T08:47:33.992Z,99378.09
2023-03-14T08:50:00.518Z,99392.63
2023-03-14T08:52:27.060Z,99398.22
2023-03-14T08:54:53.571Z,99409.50
2023-03-14T08:57:20.138Z,99410.69
2023-03-14T08:59:46.573Z,99433.00
2023-03-14T09:02:13.756Z,99443.56
2023-03-14T09:04:40.470Z,99457.34
2023-03-14T09:07:07.025Z,99462.63
2023-03-14T09:09:33.500Z,99475.72
2023-03-14T09:11:59.994Z,99488.75
2023-03-14T09:14:26.465Z,99492.00
2023-03-14T09:16:53.138Z,99501.69
2023-03-14T09:19:19.748Z,99515.19
2023-03-14T09:21:46.171Z,99512.84
2023-03-14T09:24:12.624Z,99513.84
2023-03-14T09:26:39.251Z,99544.53
2023-03-14T09:29:05.867Z,99549.81
2023-03-14T09:31:32.426Z,99559.06
2023-03-14T09:33:58.917Z,99554.94
2023-03-14T09:36:25.445Z,99564.19
2023-03-14T09:38:51.944Z,99578.91
2023-03-14T09:41:39.716Z,99590.97
2023-03-14T09:44:17.471Z,99605.38
2023-03-14T09:46:49.858Z,99615.69
2023-03-14T09:49:29.731Z,99614.66
2023-03-14T09:51:58.763Z,99629.63
2023-03-14T09:54:50.337Z,99631.84
2023-03-14T09:57:24.328Z,99648.59
2023-03-14T09:59:53.159Z,99655.41
2023-03-14T10:02:32.620Z,99657.47
2023-03-14T10:04:59.419Z,99676.13
2023-03-14T10:07:31.666Z,99681.00
2023-03-14T10:09:59.290Z,99685.09
2023-03-14T10:12:34.887Z,99686.28
2023-03-14T10:15:07.559Z,99715.69
2023-03-14T10:18:04.778Z,99744.47
2023-03-14T10:20:36.994Z,99741.31
2023-03-14T10:23:25.238Z,99761.44
2023-03-14T10:26:06.187Z,99775.09
2023-03-14T10:28:38.213Z,99771.31
2023-03-14T10:31:05.304Z,99790.47
2023-03-14T10:33:34.441Z,99792.69
2023-03-14T10:36:16.946Z,99794.75
2023-03-14T10:38:44.303Z,99815.31
2023-03-14T10:41:20.494Z,99828.06
2023-03-14T10:43:51.946Z,99832.31
2023-03-14T10:46:21.169Z,99845.56
2023-03-14T10:49:07.672Z,99854.97
2023-03-14T10:51:34.503Z,99872.31
2023-03-14T10:54:12.832Z,99885.47
2023-03-14T10:56:39.516Z,99906.88
2023-03-14T10:59:15.781Z,99904.28
2023-03-14T11:01:55.403Z,99927.72
2023-03-14T11:04:52.694Z,99926.38
2023-03-14T11:07:30.389Z,99943.72
2023-03-14T11:10:12.189Z,99944.75
2023-03-14T11:13:03.153Z,99964.78
2023-03-14T11:15:51.318Z,99962.22
2023-03-14T11:18:36.247Z,99973.22
2023-03-14T11:21:26.656Z,99986.22
2023-03-14T11:24:12.000Z,100001.19
2023-03-14T11:26:45.704Z,100005.09
2023-03-14T11:29:30.638Z,100003.38
2023-03-14T11:32:02.710Z,100015.03
2023-03-14T11:34:35.635Z,100027.63
2023-03-14T11:37:07.587Z,100047.63
2023-03-14T11:39:40.961Z,100049.97
2023-03-14T11:42:15.392Z,100052.88
2023-03-14T11:44:44.473Z,100060.13
2023-03-14T11:47:28.130Z,100071.50
2023-03-14T11:49:59.516Z,100074.84
2023-03-14T11:52:43.323Z,100074.09
2023-03-14T11:55:21.900Z,100079.25
2023-03-14T11:57:51.532Z,100086.63
2023-03-14T12:00:19.534Z,100092.44
2023-03-14T12:02:55.636Z,100092.22
2023-03-14T12:05:40.014Z,100100.56
2023-03-14T12:08:09.726Z,100117.25
2023-03-14T12:10:46.541Z,100116.03
2023-03-14T12:13:15.380Z,100129.13
2023-03-14T12:15:49.976Z,100121.56
2023-03-14T12:18:27.163Z,100150.69
2023-03-14T12:20:56.871Z,100132.72
2023-03-14T12:23:25.576Z,100146.44
2023-03-14T12:26:30.119Z,100148.03
2023-03-14T12:29:00.160Z,100161.59
2023-03-14T12:31:35.253Z,100167.31
